createdAt,value
2022-08-01T00:00:53.686Z,16.90
2022-08-01T00:03:21.368Z,17.40
2022-08-01T00:05:48.823Z,17.82
2022-08-01T00:08:16.248Z,16.82
2022-08-01T00:10:43.972Z,16.52
2022-08-01T00:13:11.411Z,16.23
2022-08-01T00:15:38.836Z,16.35
2022-08-01T00:18:06.522Z,16.10
2022-08-01T00:20:34.098Z,16.49
2022-08-01T00:23:04.106Z,16.81
2022-08-01T00:25:34.013Z,17.33
2022-08-01T00:28:04.229Z,16.06
2022-08-01T00:30:32.264Z,16.10
2022-08-01T00:32:59.881Z,15.86
2022-08-01T00:35:27.296Z,16.19
2022-08-01T00:37:55.251Z,16.35
2022-08-01T00:40:23.039Z,15.68
2022-08-01T00:42:50.544Z,15.73
2022-08-01T00:45:18.218Z,17.02
2022-08-01T00:47:45.678Z,17.10
2022-08-01T00:50:13.106Z,16.36
2022-08-01T00:52:41.428Z,16.69
2022-08-01T00:55:09.983Z,16.58
2022-08-01T00:58:02.726Z,16.07
2022-08-01T01:00:30.923Z,15.58
2022-08-01T01:03:01.525Z,15.83
2022-08-01T01:05:28.982Z,15.77
2022-08-01T01:08:20.773Z,15.60
2022-08-01T01:10:53.805Z,15.58
2022-08-01T01:13:49.551Z,15.38
2022-08-01T01:16:19.885Z,15.46
2022-08-01T01:18:57.240Z,15.52
2022-08-01T01:21:33.907Z,15.92
2022-08-01T01:24:20.002Z,16.21
2022-08-01T01:27:12.015Z,16.05
2022-08-01T01:29:58.539Z,16.21
2022-08-01T01:32:38.866Z,16.10
2022-08-01T01:35:14.044Z,15.39
2022-08-01T01:37:42.929Z,15.44
2022-08-01T01:40:12.248Z,15.54
2022-08-01T01:42:41.099Z,15.79
2022-08-01T01:45:09.762Z,15.54
2022-08-01T01:47:38.948Z,15.81
2022-08-01T01:50:07.660Z,15.45
2022-08-01T01:52:36.352Z,16.66
2022-08-01T01:55:08.033Z,16.21
2022-08-01T01:57:42.864Z,15.80
2022-08-01T02:00:12.237Z,16.88
2022-08-01T02:02:40.635Z,16.66
2022-08-01T02:05:10.541Z,15.77
2022-08-01T02:07:38.473Z,16.38
2022-08-01T02:10:06.732Z,15.65
2022-08-01T02:12:37.815Z,15.60
2022-08-01T02:15:06.173Z,15.93
2022-08-01T02:17:43.224Z,16.62
2022-08-01T02:20:13.045Z,16.05
2022-08-01T02:23:12.341Z,16.31
2022-08-01T02:26:09.487Z,17.03
2022-08-01T02:28:39.507Z,17.15
2022-08-01T02:31:09.369Z,15.63
2022-08-01T02:33:43.192Z,15.47
2022-08-01T02:36:30.521Z,15.29
2022-08-01T02:39:00.338Z,15.79
2022-08-01T02:41:28.307Z,15.74
2022-08-01T02:44:00.824Z,15.00
2022-08-01T02:46:37.787Z,15.13
2022-08-01T02:49:08.137Z,15.47
2022-08-01T02:51:37.058Z,15.44
2022-08-01T02:54:06.452Z,15.62
2022-08-01T02:56:37.283Z,15.65
2022-08-01T02:59:10.746Z,15.19
2022-08-01T03:01:42.205Z,14.99
2022-08-01T03:04:11.663Z,15.16
2022-08-01T03:06:39.759Z,15.28
2022-08-01T03:09:09.835Z,15.10
2022-08-01T03:11:39.636Z,15.03
2022-08-01T03:14:09.781Z,15.00
2022-08-01T03:16:39.366Z,15.53
2022-08-01T03:19:08.587Z,15.38
2022-08-01T03:21:36.881Z,15.09
2022-08-01T03:24:05.020Z,15.05
2022-08-01T03:26:35.418Z,15.11
2022-08-01T03:29:08.075Z,15.21
2022-08-01T03:31:36.661Z,15.20
2022-08-01T03:34:05.866Z,15.17
2022-08-01T03:36:34.800Z,15.25
2022-08-01T03:39:04.671Z,15.31
2022-08-01T03:41:35.433Z,15.25
2022-08-01T03:44:06.272Z,15.29
2022-08-01T03:46:42.581Z,15.33
2022-08-01T03:49:18.064Z,15.29
2022-08-01T03:51:50.437Z,15.24
2022-08-01T03:54:22.632Z,15.68
2022-08-01T03:56:51.274Z,15.74
2022-08-01T03:59:19.720Z,17.14
2022-08-01T04:01:47.487Z,17.25
2022-08-01T04:04:15.257Z,16.12
2022-08-01T04:06:45.462Z,15.76
2022-08-01T04:09:13.884Z,15.87
2022-08-01T04:11:44.543Z,16.10
2022-08-01T04:14:12.604Z,17.25
2022-08-01T04:16:40.058Z,17.42
2022-08-01T04:19:08.591Z,17.42
2022-08-01T04:21:36.811Z,18.34
2022-08-01T04:24:15.845Z,18.72
2022-08-01T04:26:44.960Z,18.84
2022-08-01T04:29:13.098Z,18.75
2022-08-01T04:31:43.365Z,18.60
2022-08-01T04:34:12.504Z,18.64
2022-08-01T04:36:42.882Z,18.60
2022-08-01T04:39:10.842Z,18.61
2022-08-01T04:41:39.690Z,18.68
2022-08-01T04:44:07.899Z,18.69
2022-08-01T04:46:35.841Z,18.70
2022-08-01T04:49:07.165Z,18.30
2022-08-01T04:51:34.644Z,17.82
2022-08-01T04:54:02.206Z,18.29
2022-08-01T04:56:29.933Z,18.01
2022-08-01T04:59:19.947Z,18.91
2022-08-01T05:01:51.700Z,18.90
2022-08-01T05:04:19.598Z,19.44
2022-08-01T05:06:47.029Z,19.27
2022-08-01T05:09:14.734Z,17.99
2022-08-01T05:11:42.138Z,18.85
2022-08-01T05:14:09.595Z,19.55
2022-08-01T05:16:37.491Z,19.85
2022-08-01T05:19:04.927Z,19.86
2022-08-01T05:21:32.317Z,20.00
2022-08-01T05:24:00.009Z,20.26
2022-08-01T05:26:27.429Z,20.23
2022-08-01T05:28:54.804Z,19.99
2022-08-01T05:31:22.506Z,20.06
2022-08-01T05:33:50.162Z,20.22
2022-08-01T05:36:17.622Z,20.97
2022-08-01T05:38:45.731Z,20.46
2022-08-01T05:41:13.200Z,20.59
2022-08-01T05:43:40.589Z,21.06
2022-08-01T05:46:08.293Z,20.85
2022-08-01T05:48:35.703Z,19.91
2022-08-01T05:51:04.075Z,20.98
2022-08-01T05:53:31.911Z,21.14
2022-08-01T05:55:59.299Z,20.57
2022-08-01T05:58:26.726Z,21.60
2022-08-01T06:00:54.424Z,21.48
2022-08-01T06:03:22.342Z,20.51
2022-08-01T06:05:49.732Z,21.57
2022-08-01T06:08:17.141Z,21.83
2022-08-01T06:10:44.857Z,21.08
2022-08-01T06:13:12.280Z,21.82
2022-08-01T06:15:39.711Z,22.38
2022-08-01T06:18:07.377Z,22.53
2022-08-01T06:20:34.761Z,22.70
2022-08-01T06:23:02.539Z,22.40
2022-08-01T06:25:53.427Z,21.88
2022-08-01T06:28:24.892Z,22.48
2022-08-01T06:30:52.798Z,21.86
2022-08-01T06:33:20.195Z,21.53
2022-08-01T06:35:47.669Z,22.67
2022-08-01T06:38:15.403Z,22.35
2022-08-01T06:40:43.255Z,22.32
2022-08-01T06:43:12.718Z,21.56
2022-08-01T06:45:41.113Z,22.01
2022-08-01T06:48:08.519Z,22.21
2022-08-01T06:50:36.857Z,23.13
2022-08-01T06:53:04.556Z,22.48
2022-08-01T06:55:31.991Z,22.67
2022-08-01T06:57:59.395Z,23.56
2022-08-01T07:00:28.054Z,23.27
2022-08-01T07:02:57.613Z,23.99
2022-08-01T07:05:25.328Z,24.07
2022-08-01T07:07:53.069Z,24.02
2022-08-01T07:10:20.536Z,24.86
2022-08-01T07:12:47.996Z,24.80
2022-08-01T07:15:16.631Z,25.47
2022-08-01T07:17:44.110Z,24.98
2022-08-01T07:20:16.595Z,24.56
2022-08-01T07:22:47.440Z,24.70
2022-08-01T07:25:16.355Z,25.03
2022-08-01T07:27:44.278Z,26.30
2022-08-01T07:30:12.295Z,26.44
2022-08-01T07:32:39.912Z,26.91
2022-08-01T07:35:07.856Z,26.09
2022-08-01T07:37:42.160Z,25.54
2022-08-01T07:40:18.724Z,26.76
2022-08-01T07:42:47.313Z,27.49
2022-08-01T07:45:15.793Z,27.03
2022-08-01T07:47:43.694Z,26.92
2022-08-01T07:50:11.298Z,25.81
2022-08-01T07:52:38.692Z,26.40
2022-08-01T07:55:07.072Z,26.70
2022-08-01T07:57:34.626Z,25.41
2022-08-01T08:00:04.530Z,25.60
2022-08-01T08:02:32.299Z,25.30
2022-08-01T08:04:59.756Z,24.91
2022-08-01T08:07:27.227Z,24.54
2022-08-01T08:09:54.986Z,25.68
2022-08-01T08:12:28.738Z,24.93
2022-08-01T08:14:59.495Z,24.79
2022-08-01T08:17:27.226Z,26.00
2022-08-01T08:19:55.001Z,25.02
2022-08-01T08:22:22.684Z,24.78
2022-08-01T08:24:50.065Z,25.72
2022-08-01T08:27:17.775Z,24.50
2022-08-01T08:29:47.833Z,25.47
2022-08-01T08:32:16.871Z,24.30
2022-08-01T08:34:45.798Z,25.31
2022-08-01T08:37:13.936Z,25.67
2022-08-01T08:39:42.631Z,25.09
2022-08-01T08:42:11.687Z,25.43
2022-08-01T08:44:43.616Z,25.50
2022-08-01T08:47:17.340Z,25.34
2022-08-01T08:49:49.317Z,24.53
2022-08-01T08:52:19.158Z,25.50
2022-08-01T08:54:46.899Z,25.43
2022-08-01T08:57:15.482Z,25.58
2022-08-01T08:59:46.013Z,25.25
2022-08-01T09:02:14.326Z,24.82
2022-08-01T09:04:42.557Z,24.46
2022-08-01T09:07:12.203Z,24.89
2022-08-01T09:09:41.596Z,24.69
2022-08-01T09:12:09.742Z,25.74
2022-08-01T09:14:45.852Z,25.08
2022-08-01T09:17:13.895Z,26.09
2022-08-01T09:19:43.508Z,25.92
2022-08-01T09:22:13.685Z,26.31
2022-08-01T09:24:42.166Z,26.09
2022-08-01T09:27:22.091Z,26.64
2022-08-01T09:30:01.173Z,25.89
2022-08-01T09:32:36.073Z,26.23
2022-08-01T09:35:24.223Z,26.98
2022-08-01T09:38:17.987Z,27.18
2022-08-01T09:40:46.432Z,27.44
2022-08-01T09:43:15.091Z,27.15
2022-08-01T09:45:44.008Z,27.10
2022-08-01T09:48:13.594Z,27.12
2022-08-01T09:50:44.339Z,27.60
2022-08-01T09:53:29.370Z,27.21
2022-08-01T09:56:10.672Z,27.75
2022-08-01T09:58:59.406Z,27.31
2022-08-01T10:01:51.047Z,27.82
2022-08-01T10:04:22.461Z,27.66
2022-08-01T10:06:55.346Z,27.70
2022-08-01T10:09:39.601Z,27.71
2022-08-01T10:12:15.567Z,27.66
2022-08-01T10:14:46.195Z,27.75
2022-08-01T10:17:19.831Z,27.60
2022-08-01T10:19:50.613Z,28.12
2022-08-01T10:22:19.452Z,28.27
2022-08-01T10:24:48.405Z,27.90
2022-08-01T10:27:21.672Z,28.28
2022-08-01T10:30:19.917Z,28.07
2022-08-01T10:32:55.348Z,27.99
2022-08-01T10:35:46.501Z,27.40
2022-08-01T10:38:13.687Z,27.75
2022-08-01T10:40:43.473Z,27.84
2022-08-01T10:43:12.720Z,28.44
2022-08-01T10:45:41.364Z,28.62
2022-08-01T10:48:29.683Z,28.11
2022-08-01T10:51:00.482Z,28.64
2022-08-01T10:53:31.459Z,28.81
2022-08-01T10:56:16.861Z,28.75
2022-08-01T10:58:45.572Z,28.33
2022-08-01T11:01:16.136Z,28.42
2022-08-01T11:03:57.086Z,28.62
2022-08-01T11:06:36.583Z,28.66
2022-08-01T11:09:16.882Z,28.60
2022-08-01T11:12:08.224Z,28.85
2022-08-01T11:14:59.756Z,29.13
2022-08-01T11:17:38.097Z,28.91
2022-08-01T11:20:34.494Z,28.94
2022-08-01T11:23:06.266Z,29.09
2022-08-01T11:26:03.076Z,29.43
2022-08-01T11:28:34.750Z,29.25
2022-08-01T11:31:02.957Z,29.31
2022-08-01T11:33:41.747Z,28.99
2022-08-01T11:36:12.768Z,28.89
2022-08-01T11:38:46.452Z,29.15
2022-08-01T11:41:18.195Z,29.14
2022-08-01T11:44:00.598Z,28.99
2022-08-01T11:47:00.413Z,29.32
2022-08-01T11:49:48.928Z,29.29
2022-08-01T11:52:25.951Z,29.39
2022-08-01T11:55:10.146Z,28.95
2022-08-01T11:57:39.687Z,29.41
2022-08-01T12:00:17.864Z,29.52
2022-08-01T12:02:47.416Z,29.69
2022-08-01T12:05:19.055Z,29.29
2022-08-01T12:07:51.159Z,29.12
2022-08-01T12:10:20.638Z,29.50
2022-08-01T12:12:54.180Z,29.28
2022-08-01T12:15:23.825Z,29.40
2022-08-01T12:17:58.108Z,29.32
2022-08-01T12:20:42.715Z,29.39
2022-08-01T12:23:22.174Z,29.26
2022-08-01T12:25:52.868Z,28.90
2022-08-01T12:28:20.336Z,29.15
2022-08-01T12:30:49.851Z,29.08
2022-08-01T12:33:21.577Z,28.66
2022-08-01T12:35:49.521Z,28.87
2022-08-01T12:38:18.822Z,29.01
2022-08-01T12:40:52.352Z,28.87
2022-08-01T12:43:28.455Z,28.80
2022-08-01T12:46:00.794Z,29.22
2022-08-01T12:48:29.230Z,29.20
2022-08-01T12:50:58.886Z,29.23
2022-08-01T12:53:40.395Z,29.44
2022-08-01T12:56:11.384Z,29.27
2022-08-01T12:58:39.434Z,29.64
2022-08-01T13:01:12.435Z,30.00
2022-08-01T13:03:40.954Z,30.37
2022-08-01T13:06:15.528Z,29.98
2022-08-01T13:08:45.984Z,30.14
2022-08-01T13:11:16.604Z,29.58
2022-08-01T13:13:52.870Z,30.12
2022-08-01T13:16:30.581Z,30.10
2022-08-01T13:19:07.209Z,30.40
2022-08-01T13:21:53.570Z,30.46
2022-08-01T13:24:27.276Z,29.74
2022-08-01T13:26:59.512Z,30.15
2022-08-01T13:29:33.662Z,29.75
2022-08-01T13:32:28.509Z,29.32
2022-08-01T13:35:09.350Z,29.64
2022-08-01T13:37:38.631Z,29.91
2022-08-01T13:40:08.171Z,29.91
2022-08-01T13:42:35.863Z,29.72
2022-08-01T13:45:13.798Z,29.49
2022-08-01T13:48:04.027Z,29.26
2022-08-01T13:50:33.244Z,29.20
2022-08-01T13:53:00.931Z,29.05
2022-08-01T13:55:34.265Z,28.60
2022-08-01T13:58:03.870Z,29.06
2022-08-01T14:00:31.622Z,29.19
2022-08-01T14:02:59.336Z,29.17
2022-08-01T14:05:26.785Z,29.36
2022-08-01T14:07:56.397Z,29.49
2022-08-01T14:10:25.082Z,29.49
2022-08-01T14:12:52.566Z,29.24
2022-08-01T14:15:37.898Z,29.52
2022-08-01T14:18:10.558Z,29.84
2022-08-01T14:20:39.011Z,29.85
2022-08-01T14:23:08.614Z,30.09
2022-08-01T14:26:02.553Z,30.11
2022-08-01T14:28:29.601Z,30.23
2022-08-01T14:30:58.267Z,30.37
2022-08-01T14:33:25.897Z,30.68
2022-08-01T14:36:05.393Z,30.33
2022-08-01T14:38:34.536Z,29.92
2022-08-01T14:41:04.356Z,29.28
2022-08-01T14:43:33.972Z,29.84
2022-08-01T14:46:02.322Z,29.68
2022-08-01T14:48:30.352Z,29.86
2022-08-01T14:50:59.988Z,29.74
2022-08-01T14:53:27.664Z,29.71
2022-08-01T14:55:55.077Z,29.12
2022-08-01T14:58:22.610Z,29.25
2022-08-01T15:00:52.374Z,29.83
2022-08-01T15:03:22.391Z,29.59
2022-08-01T15:05:50.270Z,29.77
2022-08-01T15:08:17.701Z,29.47
2022-08-01T15:10:45.119Z,29.37
2022-08-01T15:13:12.805Z,29.23
2022-08-01T15:15:40.345Z,29.81
2022-08-01T15:18:07.797Z,29.84
2022-08-01T15:20:35.552Z,29.65
2022-08-01T15:23:02.980Z,30.04
2022-08-01T15:25:41.139Z,30.20
2022-08-01T15:28:10.843Z,29.71
2022-08-01T15:30:39.143Z,29.91
2022-08-01T15:33:07.006Z,29.65
2022-08-01T15:35:34.718Z,29.50
2022-08-01T15:38:02.256Z,29.34
2022-08-01T15:40:29.730Z,29.90
2022-08-01T15:42:57.454Z,29.70
2022-08-01T15:48:12.762Z,29.80
2022-08-01T15:50:40.308Z,29.82
2022-08-01T15:53:07.986Z,29.70
2022-08-01T15:55:38.164Z,29.93
2022-08-01T15:58:06.157Z,29.73
2022-08-01T16:00:38.707Z,29.63
2022-08-01T16:03:08.440Z,29.45
2022-08-01T16:05:41.055Z,29.75
2022-08-01T16:08:12.271Z,29.83
2022-08-01T16:10:39.723Z,30.30
2022-08-01T16:13:07.959Z,29.55
2022-08-01T16:15:37.442Z,29.97
2022-08-01T16:18:06.562Z,29.78
2022-08-01T16:20:34.526Z,30.26
2022-08-01T16:23:02.390Z,30.29
2022-08-01T16:25:29.825Z,30.27
2022-08-01T16:27:57.241Z,30.19
2022-08-01T16:30:24.945Z,29.84
2022-08-01T16:32:54.576Z,29.75
2022-08-01T16:35:36.425Z,29.82
2022-08-01T16:38:05.722Z,29.95
2022-08-01T16:40:46.333Z,29.55
2022-08-01T16:43:15.806Z,29.98
2022-08-01T16:45:44.003Z,29.94
2022-08-01T16:48:12.590Z,29.93
2022-08-01T16:50:40.190Z,29.63
2022-08-01T16:53:07.937Z,29.58
2022-08-01T16:55:49.510Z,29.25
2022-08-01T16:58:27.350Z,29.23
2022-08-01T17:00:57.681Z,29.26
2022-08-01T17:03:46.899Z,29.16
2022-08-01T17:06:13.596Z,29.53
2022-08-01T17:08:46.539Z,28.95
2022-08-01T17:11:15.259Z,29.11
2022-08-01T17:13:43.673Z,29.12
2022-08-01T17:16:11.808Z,29.10
2022-08-01T17:18:39.496Z,29.27
2022-08-01T17:21:07.193Z,29.34
2022-08-01T17:23:35.848Z,29.09
2022-08-01T17:26:03.425Z,28.89
2022-08-01T17:28:31.215Z,29.20
2022-08-01T17:30:58.872Z,29.16
2022-08-01T17:33:45.490Z,29.22
2022-08-01T17:36:17.752Z,28.99
2022-08-01T17:38:45.319Z,29.03
2022-08-01T17:41:12.754Z,28.81
2022-08-01T17:43:40.477Z,28.48
2022-08-01T17:46:08.342Z,28.76
2022-08-01T17:48:36.362Z,28.50
2022-08-01T17:51:04.180Z,28.91
2022-08-01T17:53:31.668Z,28.92
2022-08-01T17:56:00.759Z,28.70
2022-08-01T17:58:33.748Z,28.75
2022-08-01T18:01:17.848Z,28.61
2022-08-01T18:03:46.545Z,28.63
2022-08-01T18:06:17.662Z,28.69
2022-08-01T18:08:47.572Z,28.57
2022-08-01T18:11:16.642Z,28.41
2022-08-01T18:13:44.673Z,28.54
2022-08-01T18:16:13.339Z,28.48
2022-08-01T18:18:42.162Z,28.46
2022-08-01T18:21:11.297Z,28.35
2022-08-01T18:23:39.052Z,28.27
2022-08-01T18:26:09.263Z,28.26
2022-08-01T18:28:41.957Z,28.28
2022-08-01T18:31:17.331Z,28.19
2022-08-01T18:33:45.022Z,28.21
2022-08-01T18:36:15.307Z,28.39
2022-08-01T18:39:01.836Z,27.81
2022-08-01T18:41:30.438Z,27.63
2022-08-01T18:44:03.788Z,27.21
2022-08-01T18:46:32.046Z,27.00
2022-08-01T18:48:59.527Z,26.81
2022-08-01T18:51:28.598Z,26.03
2022-08-01T18:53:57.814Z,25.97
2022-08-01T18:56:25.300Z,25.89
2022-08-01T18:58:53.503Z,25.75
2022-08-01T19:01:22.098Z,26.03
2022-08-01T19:03:49.608Z,25.94
2022-08-01T19:06:17.048Z,26.95
2022-08-01T19:08:46.011Z,25.96
2022-08-01T19:11:13.458Z,25.91
2022-08-01T19:13:40.992Z,25.99
2022-08-01T19:16:08.649Z,25.98
2022-08-01T19:18:36.054Z,26.12
2022-08-01T19:21:06.676Z,25.43
2022-08-01T19:23:53.430Z,25.17
2022-08-01T19:26:23.787Z,25.08
2022-08-01T19:28:53.430Z,24.85
2022-08-01T19:31:24.980Z,25.17
2022-08-01T19:33:52.901Z,26.08
2022-08-01T19:36:20.803Z,26.27
2022-08-01T19:38:48.237Z,26.20
2022-08-01T19:41:17.984Z,25.46
2022-08-01T19:43:47.130Z,25.99
2022-08-01T19:46:17.967Z,26.23
2022-08-01T19:48:51.552Z,26.34
2022-08-01T19:51:21.856Z,26.85
2022-08-01T19:53:55.141Z,25.86
2022-08-01T19:56:26.039Z,25.36
2022-08-01T19:59:00.332Z,25.14
2022-08-01T20:01:28.051Z,25.22
2022-08-01T20:03:56.174Z,25.85
2022-08-01T20:06:24.692Z,26.07
2022-08-01T20:08:54.750Z,26.02
2022-08-01T20:11:23.540Z,26.08
2022-08-01T20:13:51.795Z,26.18
2022-08-01T20:16:19.398Z,26.01
2022-08-01T20:18:47.308Z,26.15
2022-08-01T20:21:15.004Z,26.74
2022-08-01T20:23:44.191Z,27.16
2022-08-01T20:26:13.799Z,27.20
2022-08-01T20:28:49.155Z,27.03
2022-08-01T20:31:16.948Z,26.86
2022-08-01T20:33:47.426Z,26.31
2022-08-01T20:36:24.923Z,25.88
2022-08-01T20:38:55.378Z,25.80
2022-08-01T20:41:25.336Z,25.88
2022-08-01T20:43:55.067Z,26.31
2022-08-01T20:46:25.190Z,26.61
2022-08-01T20:48:55.505Z,25.48
2022-08-01T20:51:27.408Z,24.88
2022-08-01T20:53:56.232Z,24.58
2022-08-01T20:56:39.468Z,25.24
2022-08-01T20:59:56.055Z,25.50
2022-08-01T21:02:37.851Z,25.68
2022-08-01T21:05:10.791Z,25.31
2022-08-01T21:07:38.186Z,25.67
2022-08-01T21:10:07.916Z,25.10
2022-08-01T21:12:58.593Z,24.93
2022-08-01T21:16:11.871Z,24.06
2022-08-01T21:18:40.338Z,23.63
2022-08-01T21:21:16.205Z,23.48
2022-08-01T21:24:01.717Z,23.52
2022-08-01T21:26:29.659Z,23.70
2022-08-01T21:29:02.422Z,23.61
2022-08-01T21:31:38.741Z,23.71
2022-08-01T21:34:09.250Z,23.63
2022-08-01T21:36:37.326Z,24.23
2022-08-01T21:39:06.558Z,24.83
2022-08-01T21:42:04.746Z,24.71
2022-08-01T21:44:28.621Z,24.55
2022-08-01T21:47:00.196Z,24.09
2022-08-01T21:49:28.002Z,23.63
2022-08-01T21:52:05.275Z,23.61
2022-08-01T21:54:45.719Z,23.55
2022-08-01T21:57:34.681Z,23.57
2022-08-01T22:00:11.899Z,23.44
2022-08-01T22:03:22.279Z,23.55
2022-08-01T22:05:51.711Z,23.65
2022-08-01T22:08:50.513Z,23.63
2022-08-01T22:11:22.482Z,23.62
2022-08-01T22:13:55.094Z,24.28
2022-08-01T22:16:23.550Z,24.60
2022-08-01T22:18:51.881Z,24.95
2022-08-01T22:21:19.859Z,25.52
2022-08-01T22:23:47.745Z,25.56
2022-08-01T22:26:15.406Z,26.03
2022-08-01T22:28:44.146Z,26.00
2022-08-01T22:31:12.853Z,24.06
2022-08-01T22:33:40.567Z,24.02
2022-08-01T22:36:08.071Z,23.52
2022-08-01T22:38:35.501Z,24.91
2022-08-01T22:41:11.263Z,25.33
2022-08-01T22:44:04.570Z,24.62
2022-08-01T22:46:52.854Z,24.91
2022-08-01T22:49:40.741Z,25.23
2022-08-01T22:52:13.624Z,24.60
2022-08-01T22:54:43.966Z,24.38
2022-08-01T22:57:20.687Z,24.01
2022-08-01T23:00:06.015Z,23.04
2022-08-01T23:02:37.157Z,23.00
2022-08-01T23:05:06.650Z,24.17
2022-08-01T23:07:42.654Z,24.41
2022-08-01T23:10:10.182Z,24.43
2022-08-01T23:12:39.137Z,25.05
2022-08-01T23:15:07.958Z,24.55
2022-08-01T23:17:35.382Z,24.20
2022-08-01T23:20:06.488Z,24.01
2022-08-01T23:22:35.696Z,23.75
2022-08-01T23:25:07.201Z,24.34
2022-08-01T23:28:04.303Z,23.89
2022-08-01T23:30:31.810Z,23.97
2022-08-01T23:32:59.368Z,24.08
2022-08-01T23:35:27.347Z,23.53
2022-08-01T23:38:02.032Z,23.11
2022-08-01T23:40:33.160Z,22.77
2022-08-01T23:43:02.214Z,22.51
2022-08-01T23:46:02.355Z,22.14
2022-08-01T23:48:17.989Z,21.96
2022-08-01T23:50:45.398Z,22.40
2022-08-01T23:53:13.212Z,22.08
2022-08-01T23:55:44.060Z,22.16
2022-08-01T23:58:11.936Z,22.04
